Alconbury RAF, United Kingdom

4:39 PM GMT on February 11, 2016 (GMT +0000)
Alconbury Weston | | Change Station
CLOSE
Current Station
Personal Weather Station
Location: Alconbury Weston,
Elevation: 79 ft
Nearby Weather Stations

Elev 79 ft 52.37 °N, 0.28 °W | Updated 4 seconds ago

Partly Cloudy
Partly Cloudy
46.2 °F
Feels Like 46 °F
N
0.9
Wind Variable Wind from SW
Gusts 2.5 mph

Today
High -- | Low -- °F
--% Chance of Precip.
Yesterday
High -- | Low -- °F
Precip. -- in
Pressure 29.59 in
Visibility 6.2 miles
Clouds Few 3300 ft
Windchill 46 °F
Dew Point 30 °F
Humidity 53%
Rainfall 0.00 in
Snow Depth Not available.
7:25 AM 5:05 PM
Waxing Crescent, 13% visible
METAR EGSC 111620Z 22004KT 9999 FEW033 07/05 Q1002
Pressure 29.59 in
Visibility 6.2 miles
Clouds Few 3300 ft
Windchill 46 °F
Dew Point 30 °F
Humidity 53%
Rainfall 0.00 in
Snow Depth Not available.
7:25 AM 5:05 PM
Waxing Crescent, 13% visible
METAR EGSC 111620Z 22004KT 9999 FEW033 07/05 Q1002

10-Day Weather Forecast

Almanac

Astronomy

Feb. 11, 2016 Rise Set
Actual Time
Civil Twilight
Nautical Twilight
Astronomical Twilight
Moon
Length of Visible Light
Length of Day
Tomorrow will be .
, % of the Moon is Illuminated

Today's Extremes

Country Highs Country Lows

Community

WunderPhotos

Upload Photos

1,892,095 photos uploaded!

WunderBlog® & News

Nearby

Air Quality

  Air Quality AQ Index Pollutant
Not available.

Snow Depth

Station Depth Elevation

Earthquake Activity

City Distance Mag. Time & Date
Minimum magnitude displayed is 2.5.

Coastal Water Temperatures

Place Temperature

Stations

Nearby Weather Stations

Station Location Temp. Windchill Dew Point Humidity Wind Precip. Elev Updated Type